Terminal Aerodrome Forecast
Issued by NWS Omaha/Valley, NE

Home | Current Version | Previous Version | Text Only | Print | Product List | Glossary On
Versions: 1 2 3 4 5 6 7 8 9 10 11 12 13 14 15 16 17 18
000
FTUS43 KOAX 230520
TAFLNK
TAF
KLNK 230520Z 2306/2406 33006KT P6SM SCT045 BKN100
     FM231400 33011KT P6SM FEW025 BKN100
     FM231800 33013KT P6SM VCSH SCT035 BKN050
     FM240000 34010KT P6SM BKN070=

USA.gov is the U.S. government's official web portal to all federal, state and local government web resources and services.